Time;durP1;ratioP1;P1;durP2;ratioP2;P2;SDS_P1;SDS_P2;PMS_P1;PMS_P2;Temp;Humidity;BMP_temperature;BMP_pressure;BME280_temperature;BME280_humidity;BME280_pressure;Samples;Min_cycle;Max_cycle;Signal;HPM_P1;HPM_P2
2024/01/14 00:05:38;;;;;;;295.75;275.45;;;2.70;99.90;;;;;;12363032;28;20504;-34
2024/01/14 00:11:40;;;;;;;292.88;272.85;;;2.70;99.90;;;;;;12359495;28;20449;-35
2024/01/14 00:17:42;;;;;;;279.48;260.23;;;2.70;99.90;;;;;;12337463;28;20069;-36
2024/01/14 00:23:44;;;;;;;252.23;234.98;;;2.70;99.90;;;;;;12339382;28;20518;-35
2024/01/14 00:29:46;;;;;;;237.80;221.75;;;2.70;99.90;;;;;;12360767;28;20120;-35
2024/01/14 00:35:48;;;;;;;231.52;215.48;;;2.70;99.90;;;;;;12383672;28;20086;-35
2024/01/14 00:41:50;;;;;;;243.85;227.07;;;2.70;99.90;;;;;;12370569;28;20098;-35
2024/01/14 00:47:52;;;;;;;251.80;234.70;;;2.70;99.90;;;;;;12367375;28;20109;-36
2024/01/14 00:53:54;;;;;;;265.75;247.38;;;2.70;99.90;;;;;;12360226;28;20078;-35
2024/01/14 00:59:56;;;;;;;258.20;240.38;;;2.80;99.90;;;;;;12344795;28;20134;-35
2024/01/14 01:05:58;;;;;;;259.08;241.13;;;2.80;99.90;;;;;;12346396;28;20140;-35
2024/01/14 01:12:00;;;;;;;274.30;255.85;;;2.80;99.90;;;;;;12388666;28;20176;-36
2024/01/14 01:18:02;;;;;;;286.77;267.00;;;2.80;99.90;;;;;;12357906;28;20043;-36
2024/01/14 01:24:05;;;;;;;257.23;239.40;;;2.80;99.90;;;;;;12346183;28;20096;-36
2024/01/14 01:30:07;;;;;;;280.42;261.48;;;2.80;99.90;;;;;;12353977;28;20572;-35
2024/01/14 01:36:09;;;;;;;267.48;249.25;;;2.80;99.90;;;;;;12354069;28;20051;-35
2024/01/14 01:42:12;;;;;;;257.35;239.68;;;2.70;99.90;;;;;;12361780;28;20163;-36
2024/01/14 01:48:14;;;;;;;272.45;253.77;;;2.60;99.90;;;;;;12387156;28;20056;-35
2024/01/14 01:54:23;;;;;;;261.83;244.27;;;2.60;99.90;;;;;;12388874;28;20095;-35
2024/01/14 02:00:26;;;;;;;252.32;236.00;;;2.50;99.90;;;;;;12362142;28;20046;-35
2024/01/14 02:06:28;;;;;;;242.30;226.18;;;2.40;99.90;;;;;;12371248;28;20123;-35
2024/01/14 02:12:30;;;;;;;243.95;227.93;;;2.40;99.90;;;;;;12412087;28;20070;-35
2024/01/14 02:18:33;;;;;;;264.02;245.98;;;2.40;99.90;;;;;;12412881;28;20053;-35
2024/01/14 02:24:37;;;;;;;275.92;257.85;;;2.40;99.90;;;;;;12353286;28;20095;-35
2024/01/14 02:30:39;;;;;;;284.02;264.88;;;2.40;99.90;;;;;;12378161;28;20074;-35
2024/01/14 02:36:42;;;;;;;289.52;270.05;;;2.40;99.90;;;;;;12392643;28;20042;-35
2024/01/14 02:42:44;;;;;;;286.88;267.60;;;2.40;99.90;;;;;;12424762;28;20093;-35
2024/01/14 02:48:46;;;;;;;285.95;266.85;;;2.40;99.90;;;;;;12376648;28;20062;-34
2024/01/14 02:54:48;;;;;;;294.35;275.00;;;2.30;99.90;;;;;;12401797;28;20081;-35
2024/01/14 03:00:50;;;;;;;293.60;274.27;;;2.30;99.90;;;;;;12385353;28;20092;-35
2024/01/14 03:06:52;;;;;;;324.75;303.67;;;2.30;99.90;;;;;;12365515;28;20054;-35
2024/01/14 03:12:54;;;;;;;371.20;346.65;;;2.30;99.90;;;;;;12371859;28;20196;-35
2024/01/14 03:18:56;;;;;;;357.17;333.27;;;2.30;99.90;;;;;;12359731;28;20058;-35
2024/01/14 03:24:58;;;;;;;376.70;351.60;;;2.40;99.90;;;;;;12447285;28;20123;-35
2024/01/14 03:31:00;;;;;;;369.98;345.75;;;2.40;99.90;;;;;;12388355;28;20520;-35
2024/01/14 03:37:03;;;;;;;375.77;350.60;;;2.40;99.90;;;;;;12368216;28;20129;-35
2024/01/14 03:43:05;;;;;;;384.98;359.20;;;2.50;99.90;;;;;;12394330;28;20058;-34
2024/01/14 03:49:08;;;;;;;397.77;371.52;;;2.50;99.90;;;;;;12404534;28;20044;-37
2024/01/14 03:55:10;;;;;;;404.98;377.83;;;2.50;99.90;;;;;;12396759;28;20043;-36
2024/01/14 04:01:17;;;;;;;379.73;354.40;;;2.40;99.90;;;;;;12344813;28;20046;-36
2024/01/14 04:07:20;;;;;;;380.65;355.40;;;2.40;99.90;;;;;;12357978;28;20049;-35
2024/01/14 04:13:21;;;;;;;391.67;365.70;;;2.30;99.90;;;;;;12359324;28;20089;-35
2024/01/14 04:19:23;;;;;;;385.85;360.35;;;2.30;99.90;;;;;;12348869;28;20047;-35
2024/01/14 04:25:25;;;;;;;374.60;349.85;;;2.30;99.90;;;;;;12375549;28;20058;-34
2024/01/14 04:31:28;;;;;;;365.85;341.88;;;2.20;99.90;;;;;;12404511;28;20073;-34
2024/01/14 04:37:31;;;;;;;362.15;338.30;;;2.20;99.90;;;;;;12367783;28;20058;-35
2024/01/14 04:43:33;;;;;;;376.15;351.00;;;2.10;99.90;;;;;;12363208;28;20058;-35
2024/01/14 04:49:35;;;;;;;377.38;352.42;;;2.10;99.90;;;;;;12416438;28;20079;-35
2024/01/14 04:55:37;;;;;;;382.98;357.77;;;2.10;99.90;;;;;;12335348;28;20493;-34
2024/01/14 05:01:39;;;;;;;382.42;356.52;;;2.20;99.90;;;;;;12351344;28;22037;-35
2024/01/14 05:07:41;;;;;;;392.45;366.23;;;2.30;99.90;;;;;;12362026;28;20058;-35
2024/01/14 05:13:43;;;;;;;394.73;368.35;;;2.30;99.90;;;;;;12354570;28;20063;-35
2024/01/14 05:19:45;;;;;;;405.83;378.38;;;2.30;99.90;;;;;;12365547;28;20077;-34
2024/01/14 05:25:47;;;;;;;412.65;384.50;;;2.30;99.90;;;;;;12354560;28;20051;-35
2024/01/14 05:31:49;;;;;;;393.60;367.02;;;2.40;99.90;;;;;;12371548;28;20125;-35
2024/01/14 05:37:51;;;;;;;361.77;337.25;;;2.40;99.90;;;;;;12377155;28;20100;-35
2024/01/14 05:43:54;;;;;;;363.40;338.75;;;2.40;99.90;;;;;;12383994;28;20058;-34
2024/01/14 05:49:57;;;;;;;376.90;350.92;;;2.40;99.90;;;;;;12368565;28;20070;-35
2024/01/14 05:56:00;;;;;;;365.13;339.65;;;2.40;99.90;;;;;;12346982;28;20046;-35
2024/01/14 06:02:02;;;;;;;353.58;329.35;;;2.30;99.90;;;;;;12368342;28;20487;-34
2024/01/14 06:08:04;;;;;;;354.95;330.20;;;2.40;99.90;;;;;;12350313;28;22349;-35
2024/01/14 06:14:06;;;;;;;350.27;326.42;;;2.40;99.90;;;;;;12349243;28;20089;-35
2024/01/14 06:20:09;;;;;;;351.17;326.98;;;2.50;99.90;;;;;;12366316;28;20486;-35
2024/01/14 06:26:17;;;;;;;349.50;325.13;;;2.40;99.90;;;;;;12368975;28;20183;-34
2024/01/14 06:32:20;;;;;;;343.15;319.67;;;2.40;99.90;;;;;;12349696;28;20062;-35
2024/01/14 06:38:22;;;;;;;328.33;306.23;;;2.30;99.90;;;;;;12356020;28;20054;-35
2024/01/14 06:44:24;;;;;;;334.08;311.45;;;2.20;99.90;;;;;;12366440;28;20415;-35
2024/01/14 06:50:26;;;;;;;333.27;311.48;;;2.20;99.90;;;;;;12376568;28;20062;-34
2024/01/14 06:56:28;;;;;;;320.90;299.70;;;2.20;99.90;;;;;;12342559;28;20051;-35
2024/01/14 07:02:29;;;;;;;324.35;302.63;;;2.30;99.90;;;;;;12358034;28;20051;-35
2024/01/14 07:08:31;;;;;;;307.65;287.48;;;2.30;99.90;;;;;;12380795;28;20556;-35
2024/01/14 07:14:33;;;;;;;308.75;288.40;;;2.30;99.90;;;;;;12363048;28;20085;-34
2024/01/14 07:20:35;;;;;;;309.92;289.20;;;2.30;99.90;;;;;;12359410;28;20089;-35
2024/01/14 07:26:37;;;;;;;314.20;293.15;;;2.30;99.90;;;;;;12347958;28;20077;-35
2024/01/14 07:32:39;;;;;;;306.70;286.25;;;2.20;99.90;;;;;;12359703;28;20482;-35
2024/01/14 07:38:41;;;;;;;297.33;277.75;;;2.20;99.90;;;;;;12356565;28;20129;-35
2024/01/14 07:44:43;;;;;;;299.02;279.38;;;2.20;99.90;;;;;;12356084;28;20081;-35
2024/01/14 07:50:45;;;;;;;291.52;272.85;;;2.10;99.90;;;;;;12386086;28;20051;-35
2024/01/14 07:56:48;;;;;;;285.55;267.15;;;2.10;99.90;;;;;;12340830;28;20050;-35
2024/01/14 08:02:49;;;;;;;266.98;249.55;;;2.10;99.90;;;;;;12348881;28;20051;-35
2024/01/14 08:08:51;;;;;;;271.05;253.35;;;2.00;99.90;;;;;;12357271;28;20085;-35
2024/01/14 08:14:53;;;;;;;275.35;257.75;;;2.10;99.90;;;;;;12366199;28;20055;-34
2024/01/14 08:20:55;;;;;;;270.25;252.88;;;2.10;99.90;;;;;;12356712;28;20411;-35
2024/01/14 08:26:57;;;;;;;274.02;256.25;;;2.00;99.90;;;;;;12349322;28;20062;-34
2024/01/14 08:33:00;;;;;;;255.38;238.93;;;1.90;99.90;;;;;;12355587;28;20375;-35
2024/01/14 08:39:03;;;;;;;266.02;249.15;;;1.80;99.90;;;;;;12353282;28;20176;-35
2024/01/14 08:45:05;;;;;;;260.38;243.80;;;1.80;99.90;;;;;;12348080;28;20050;-35
2024/01/14 08:51:09;;;;;;;263.38;246.50;;;1.80;99.90;;;;;;12369053;28;20095;-35
2024/01/14 08:57:12;;;;;;;274.80;256.90;;;1.80;99.90;;;;;;12346064;28;20115;-34
2024/01/14 09:03:14;;;;;;;256.90;240.13;;;1.90;99.90;;;;;;12353213;28;20538;-35
2024/01/14 09:09:16;;;;;;;268.88;250.18;;;1.90;99.90;;;;;;12353256;28;20050;-35
2024/01/14 09:15:18;;;;;;;251.27;235.32;;;1.80;99.90;;;;;;12359578;28;20050;-35
2024/01/14 09:21:20;;;;;;;240.43;225.02;;;1.70;99.90;;;;;;12347661;28;20522;-35
2024/01/14 09:27:22;;;;;;;244.75;229.23;;;1.70;99.90;;;;;;12369091;28;20596;-35
2024/01/14 09:33:24;;;;;;;252.63;236.43;;;1.80;99.90;;;;;;12350971;28;20046;-35
2024/01/14 09:39:26;;;;;;;248.52;232.68;;;1.80;99.90;;;;;;12355405;28;20147;-34
2024/01/14 09:45:29;;;;;;;257.13;240.25;;;2.00;99.90;;;;;;12413912;28;20058;-35
2024/01/14 09:51:40;;;;;;;263.35;246.50;;;2.00;99.90;;;;;;12392950;28;20055;-35
2024/01/14 09:57:47;;;;;;;257.45;240.60;;;2.00;99.90;;;;;;12391959;28;20070;-35
2024/01/14 10:03:50;;;;;;;260.98;243.82;;;2.00;99.90;;;;;;12364581;28;20058;-35
2024/01/14 10:09:52;;;;;;;236.95;221.70;;;2.00;99.90;;;;;;12363452;28;20050;-35
2024/01/14 10:15:54;;;;;;;247.75;231.30;;;2.00;99.90;;;;;;12367448;28;20075;-35
2024/01/14 10:22:00;;;;;;;237.77;222.52;;;2.00;99.90;;;;;;12360083;28;20050;-35
2024/01/14 10:28:18;;;;;;;249.25;233.15;;;2.00;99.90;;;;;;12367146;28;20058;-35
2024/01/14 10:34:20;;;;;;;239.82;224.48;;;1.90;99.90;;;;;;12370613;28;20050;-35
2024/01/14 10:40:29;;;;;;;240.70;225.20;;;2.00;99.90;;;;;;12374733;28;20103;-35
2024/01/14 10:46:34;;;;;;;235.20;219.73;;;2.00;99.90;;;;;;12378936;28;20526;-35
2024/01/14 10:52:39;;;;;;;248.32;231.98;;;2.00;99.90;;;;;;12390851;28;20077;-35
2024/01/14 10:58:41;;;;;;;234.15;219.15;;;2.00;99.90;;;;;;12372055;28;20394;-34
2024/01/14 11:04:44;;;;;;;248.05;232.02;;;2.00;99.90;;;;;;12375074;28;20053;-35
2024/01/14 11:10:47;;;;;;;244.77;228.65;;;2.00;99.90;;;;;;12375206;28;20042;-35
2024/01/14 11:17:09;;;;;;;227.07;212.43;;;2.00;99.90;;;;;;12348997;28;20130;-35
2024/01/14 11:23:10;;;;;;;231.73;216.93;;;2.10;99.90;;;;;;12369296;28;20078;-34
2024/01/14 11:29:13;;;;;;;231.30;216.52;;;2.10;99.90;;;;;;12354487;28;20050;-35
2024/01/14 11:35:34;;;;;;;215.63;202.02;;;2.10;99.90;;;;;;12364390;28;20047;-35
2024/01/14 11:41:36;;;;;;;205.05;192.35;;;2.10;99.90;;;;;;12373623;28;20410;-35
2024/01/14 11:47:47;;;;;;;207.38;194.20;;;2.10;99.90;;;;;;12381281;28;20050;-35
2024/01/14 11:53:49;;;;;;;189.52;177.73;;;2.10;99.90;;;;;;12353229;28;20475;-35
2024/01/14 11:59:57;;;;;;;212.52;199.15;;;2.30;99.90;;;;;;12365241;28;20079;-35
2024/01/14 12:06:00;;;;;;;210.35;197.18;;;2.30;99.90;;;;;;12344030;28;20150;-35
2024/01/14 12:12:06;;;;;;;231.65;216.70;;;2.20;99.90;;;;;;12368275;28;20057;-35
2024/01/14 12:18:08;;;;;;;236.70;221.27;;;2.20;99.90;;;;;;12350369;28;20053;-35
2024/01/14 12:24:11;;;;;;;239.73;224.07;;;2.10;99.90;;;;;;12356697;28;20172;-35
2024/01/14 12:30:23;;;;;;;266.27;248.90;;;2.00;99.90;;;;;;12369954;28;20088;-35
2024/01/14 12:36:25;;;;;;;254.55;237.93;;;1.80;99.90;;;;;;12353706;28;20047;-34
2024/01/14 12:42:42;;;;;;;242.15;225.70;;;1.70;99.90;;;;;;12365013;28;20482;-35
2024/01/14 12:48:44;;;;;;;268.90;251.55;;;1.60;99.90;;;;;;12369316;28;20107;-35
2024/01/14 12:54:50;;;;;;;303.25;283.70;;;1.70;99.90;;;;;;12352398;28;20051;-35
2024/01/14 13:00:51;;;;;;;311.52;291.60;;;1.50;99.90;;;;;;12346481;28;20184;-35
2024/01/14 13:06:53;;;;;;;326.83;306.35;;;1.50;99.90;;;;;;12361326;28;20062;-35
2024/01/14 13:13:00;;;;;;;308.13;288.92;;;1.40;99.90;;;;;;12363994;28;20406;-35
2024/01/14 13:19:02;;;;;;;299.13;280.98;;;1.40;99.90;;;;;;12378239;28;20505;-35
2024/01/14 13:25:05;;;;;;;296.48;278.27;;;1.50;99.90;;;;;;12348633;28;20095;-35
2024/01/14 13:31:07;;;;;;;289.08;271.33;;;1.50;99.90;;;;;;12348726;28;20104;-35
2024/01/14 13:37:10;;;;;;;268.92;251.98;;;1.50;99.90;;;;;;12350274;28;20042;-34
2024/01/14 13:43:12;;;;;;;274.92;257.77;;;1.50;99.90;;;;;;12359577;28;20079;-35
2024/01/14 13:49:15;;;;;;;287.95;269.88;;;1.60;99.90;;;;;;12375039;28;20142;-35
2024/01/14 13:55:17;;;;;;;306.50;286.83;;;1.50;99.90;;;;;;12344323;28;20096;-35
2024/01/14 14:01:19;;;;;;;288.90;270.02;;;1.50;99.90;;;;;;12352792;28;20050;-35
2024/01/14 14:07:21;;;;;;;274.63;256.55;;;1.50;99.90;;;;;;12356787;28;20157;-35
2024/01/14 14:13:24;;;;;;;273.65;256.25;;;1.40;99.90;;;;;;12362248;28;20187;-35
2024/01/14 14:19:26;;;;;;;281.80;263.65;;;1.50;99.90;;;;;;12362622;28;20051;-35
2024/01/14 14:25:28;;;;;;;282.83;264.60;;;1.40;99.90;;;;;;12355382;28;20062;-35
2024/01/14 14:31:31;;;;;;;290.70;271.95;;;1.40;99.90;;;;;;12343249;28;20055;-35
2024/01/14 14:37:49;;;;;;;285.92;267.38;;;1.20;99.90;;;;;;12348479;28;20420;-35
2024/01/14 14:43:51;;;;;;;303.27;283.30;;;1.30;99.90;;;;;;12399623;28;20055;-35
2024/01/14 14:49:53;;;;;;;344.83;322.52;;;1.20;99.90;;;;;;12387781;28;20107;-35
2024/01/14 14:55:55;;;;;;;318.42;297.55;;;1.20;99.90;;;;;;12382023;28;20043;-35
2024/01/14 15:01:57;;;;;;;311.40;290.88;;;1.20;99.90;;;;;;12351511;28;20380;-34
2024/01/14 15:07:59;;;;;;;314.10;293.10;;;1.20;99.90;;;;;;12373468;28;20042;-35
2024/01/14 15:14:01;;;;;;;353.17;329.88;;;1.10;99.90;;;;;;12359843;28;20043;-35
2024/01/14 15:20:03;;;;;;;372.75;348.10;;;1.20;99.90;;;;;;12348216;28;20111;-34
2024/01/14 15:26:09;;;;;;;464.40;433.83;;;1.10;99.90;;;;;;12353131;28;20062;-35
2024/01/14 15:32:11;;;;;;;329.35;307.58;;;1.10;99.90;;;;;;12360656;28;20100;-35
2024/01/14 15:38:14;;;;;;;379.95;354.88;;;1.10;99.90;;;;;;12340266;28;20046;-34
2024/01/14 15:44:16;;;;;;;382.50;357.08;;;1.20;99.90;;;;;;12389252;28;20051;-35
2024/01/14 15:50:19;;;;;;;393.35;367.15;;;1.10;99.90;;;;;;12387232;28;20135;-35
2024/01/14 15:56:20;;;;;;;375.92;351.13;;;1.10;99.90;;;;;;12359424;28;20046;-35
2024/01/14 16:02:22;;;;;;;359.17;335.27;;;1.10;99.90;;;;;;12354775;28;20447;-35
2024/01/14 16:08:24;;;;;;;357.83;334.13;;;1.10;99.90;;;;;;12385684;28;20061;-35
2024/01/14 16:14:26;;;;;;;347.83;324.42;;;1.10;99.90;;;;;;12355653;28;20082;-35
2024/01/14 16:20:28;;;;;;;344.45;321.42;;;1.10;99.90;;;;;;12346087;28;20105;-35
2024/01/14 16:26:30;;;;;;;319.83;298.85;;;1.00;99.90;;;;;;12385464;28;20073;-35
2024/01/14 16:32:31;;;;;;;308.85;288.70;;;1.10;99.90;;;;;;12355065;28;20141;-35
2024/01/14 16:38:33;;;;;;;290.33;271.20;;;1.20;99.90;;;;;;12357114;28;20085;-35
2024/01/14 16:44:35;;;;;;;310.35;290.45;;;1.10;99.90;;;;;;12375227;28;20051;-35
2024/01/14 16:50:37;;;;;;;307.52;287.33;;;1.10;99.90;;;;;;12420848;28;20082;-35
2024/01/14 16:56:39;;;;;;;316.20;295.92;;;1.10;99.90;;;;;;12353376;28;20058;-34
2024/01/14 17:02:41;;;;;;;312.60;292.42;;;1.00;99.90;;;;;;12354028;28;20074;-35
2024/01/14 17:08:44;;;;;;;325.55;304.42;;;1.00;99.90;;;;;;12333002;28;20078;-35
2024/01/14 17:14:47;;;;;;;324.90;303.23;;;1.10;99.90;;;;;;12373558;28;20046;-35
2024/01/14 17:20:48;;;;;;;328.35;306.67;;;1.10;99.90;;;;;;12355312;28;20054;-34
2024/01/14 17:26:50;;;;;;;342.23;319.50;;;1.10;99.90;;;;;;12353216;28;20054;-35
2024/01/14 17:32:52;;;;;;;350.40;327.48;;;1.20;99.90;;;;;;12359650;28;20082;-35
2024/01/14 17:38:54;;;;;;;340.85;318.63;;;1.20;99.90;;;;;;12345520;28;20050;-35
2024/01/14 17:44:56;;;;;;;333.30;311.35;;;1.10;99.90;;;;;;12372514;28;20046;-35
2024/01/14 17:51:00;;;;;;;334.02;312.35;;;1.20;99.90;;;;;;12368485;28;20419;-35
2024/01/14 17:57:02;;;;;;;317.03;296.50;;;1.10;99.90;;;;;;12367248;28;20038;-35
2024/01/14 18:03:04;;;;;;;312.50;291.98;;;1.10;99.90;;;;;;12336950;28;20046;-35
2024/01/14 18:09:06;;;;;;;324.15;302.83;;;1.00;99.90;;;;;;12376517;28;20057;-34
2024/01/14 18:15:09;;;;;;;295.80;276.67;;;1.10;99.90;;;;;;12370255;28;20473;-34
2024/01/14 18:21:15;;;;;;;289.67;271.08;;;1.00;99.90;;;;;;12366542;28;20501;-34
2024/01/14 18:27:18;;;;;;;271.38;253.85;;;0.90;99.90;;;;;;12366810;28;20051;-35
2024/01/14 18:33:20;;;;;;;297.80;278.35;;;1.00;99.90;;;;;;12357341;28;20412;-35
2024/01/14 18:39:22;;;;;;;286.95;268.52;;;1.00;99.90;;;;;;12379576;28;20046;-34
2024/01/14 18:45:27;;;;;;;308.55;288.63;;;1.00;99.90;;;;;;12372191;28;20055;-35
2024/01/14 18:51:28;;;;;;;;;;;1.00;99.90;;;;;;12391936;28;20620;-35
2024/01/14 18:57:30;;;;;;;300.85;281.83;;;1.10;99.90;;;;;;12365522;28;19926;-35
2024/01/14 19:03:32;;;;;;;289.10;269.92;;;1.10;99.90;;;;;;12355715;28;20087;-35
2024/01/14 19:09:35;;;;;;;262.10;245.20;;;1.10;99.90;;;;;;12370306;28;20081;-33
2024/01/14 19:15:37;;;;;;;247.05;230.65;;;1.10;99.90;;;;;;12357194;28;20050;-35
2024/01/14 19:21:39;;;;;;;235.50;219.75;;;1.20;99.90;;;;;;12371246;28;20139;-35
2024/01/14 19:27:41;;;;;;;223.00;208.38;;;1.10;99.90;;;;;;12356798;28;20069;-35
2024/01/14 19:33:43;;;;;;;217.75;203.13;;;1.10;99.90;;;;;;12358745;28;20051;-36
2024/01/14 19:39:48;;;;;;;217.05;202.48;;;1.20;99.90;;;;;;12358489;28;20043;-35
2024/01/14 19:45:50;;;;;;;219.90;204.98;;;1.20;99.90;;;;;;12395222;28;20061;-35
2024/01/14 19:51:52;;;;;;;183.45;170.25;;;1.20;99.90;;;;;;12412196;28;20487;-35
2024/01/14 19:57:54;;;;;;;190.32;177.07;;;1.20;99.90;;;;;;12366023;28;20051;-34
2024/01/14 20:03:56;;;;;;;177.90;165.57;;;1.20;99.90;;;;;;12364576;28;20504;-35
2024/01/14 20:09:59;;;;;;;177.32;164.82;;;1.20;99.90;;;;;;12422529;28;20067;-35
2024/01/14 20:16:03;;;;;;;173.85;162.15;;;1.10;99.90;;;;;;12352071;28;20141;-35
2024/01/14 20:22:05;;;;;;;161.93;151.07;;;1.00;99.90;;;;;;12358402;28;20517;-36
2024/01/14 20:28:07;;;;;;;167.35;155.57;;;1.10;99.90;;;;;;12361828;28;20055;-35
2024/01/14 20:34:09;;;;;;;173.82;161.98;;;1.10;99.90;;;;;;12348455;28;20074;-35
2024/01/14 20:40:13;;;;;;;178.20;166.07;;;1.10;99.90;;;;;;12347056;28;20141;-35
2024/01/14 20:46:15;;;;;;;164.95;153.43;;;1.10;99.90;;;;;;12390457;28;20051;-35
2024/01/14 20:52:17;;;;;;;164.25;152.95;;;1.20;99.90;;;;;;12393967;28;20042;-34
2024/01/14 20:58:19;;;;;;;162.77;151.45;;;1.00;99.90;;;;;;12353401;28;20168;-35
2024/01/14 21:04:21;;;;;;;175.82;163.60;;;0.90;99.90;;;;;;12353489;28;20042;-35
2024/01/14 21:10:24;;;;;;;185.30;172.75;;;0.90;99.90;;;;;;12375062;28;20065;-36
2024/01/14 21:16:26;;;;;;;154.07;142.95;;;1.00;99.90;;;;;;12351654;28;20052;-36
2024/01/14 21:22:28;;;;;;;149.70;139.43;;;1.00;99.90;;;;;;12369091;28;20544;-35
2024/01/14 21:28:30;;;;;;;148.43;138.25;;;0.90;99.90;;;;;;12354683;28;20046;-36
2024/01/14 21:34:31;;;;;;;151.90;141.13;;;1.00;99.90;;;;;;12370111;28;20043;-35
2024/01/14 21:40:33;;;;;;;157.93;146.60;;;1.00;99.90;;;;;;12357153;28;20485;-35
2024/01/14 21:46:35;;;;;;;156.88;145.70;;;1.00;99.90;;;;;;12394372;28;20050;-35
2024/01/14 21:52:37;;;;;;;150.88;139.50;;;0.90;99.90;;;;;;12380880;28;20059;-35
2024/01/14 21:58:39;;;;;;;153.73;142.63;;;1.00;99.90;;;;;;12362383;28;20058;-36
2024/01/14 22:04:41;;;;;;;222.82;207.50;;;1.10;99.90;;;;;;12363845;28;20088;-35
2024/01/14 22:10:43;;;;;;;174.65;162.25;;;1.10;99.90;;;;;;12378602;28;20069;-35
2024/01/14 22:16:45;;;;;;;169.43;157.50;;;1.10;99.90;;;;;;12366271;28;20487;-35
2024/01/14 22:22:47;;;;;;;203.10;189.02;;;1.10;99.90;;;;;;12355441;28;20480;-34
2024/01/14 22:28:48;;;;;;;322.73;301.60;;;1.10;99.90;;;;;;12372000;28;20050;-36
2024/01/14 22:34:50;;;;;;;356.88;333.40;;;1.00;99.90;;;;;;12364077;28;20075;-35
2024/01/14 22:40:52;;;;;;;350.70;327.27;;;1.00;99.90;;;;;;12347857;28;20050;-34
2024/01/14 22:46:54;;;;;;;333.65;311.80;;;1.00;99.90;;;;;;12392649;28;20105;-35
2024/01/14 22:52:56;;;;;;;353.45;330.33;;;1.10;99.90;;;;;;12394708;28;20133;-35
2024/01/14 22:58:58;;;;;;;502.45;469.77;;;1.10;99.90;;;;;;12354624;28;20046;-35
2024/01/14 23:05:00;;;;;;;411.63;384.98;;;1.10;99.90;;;;;;12389110;28;20047;-35
2024/01/14 23:11:03;;;;;;;436.45;408.40;;;1.10;99.90;;;;;;12352198;28;20054;-35
2024/01/14 23:17:05;;;;;;;461.95;432.45;;;1.00;99.90;;;;;;12338403;28;20047;-36
2024/01/14 23:23:06;;;;;;;443.92;415.40;;;1.00;99.90;;;;;;12364979;28;20073;-35
2024/01/14 23:29:08;;;;;;;434.27;406.00;;;1.10;99.90;;;;;;12366067;28;20430;-34
2024/01/14 23:35:10;;;;;;;451.80;422.38;;;1.10;99.90;;;;;;12352613;28;20076;-35
2024/01/14 23:41:12;;;;;;;411.67;384.85;;;1.10;99.90;;;;;;12373503;28;20136;-35
2024/01/14 23:47:14;;;;;;;342.48;320.27;;;1.20;99.90;;;;;;12405601;28;20058;-35
2024/01/14 23:53:16;;;;;;;310.73;289.90;;;1.20;99.90;;;;;;12362184;28;20086;-35
2024/01/14 23:59:18;;;;;;;326.63;305.38;;;1.20;99.90;;;;;;12362590;28;20049;-35
